Time;durP1;ratioP1;P1;durP2;ratioP2;P2;SDS_P1;SDS_P2;PMS_P1;PMS_P2;Temp;Humidity;BMP_temperature;BMP_pressure;BME280_temperature;BME280_humidity;BME280_pressure;Samples;Min_cycle;Max_cycle;Signal;HPM_P1;HPM_P2
2021/08/14 00:01:38;;;;;;;22.20;10.40;;;15.70;99.90;;;;;;5034941;28;20395;-57
2021/08/14 00:04:04;;;;;;;28.35;12.50;;;15.70;99.90;;;;;;5039965;28;20095;-58
2021/08/14 00:06:29;;;;;;;22.08;11.35;;;15.60;99.90;;;;;;5035121;28;20095;-53
2021/08/14 00:08:55;;;;;;;33.45;12.07;;;15.60;99.90;;;;;;5050289;28;20047;-58
2021/08/14 00:11:20;;;;;;;29.98;12.35;;;15.60;99.90;;;;;;5039892;28;20040;-58
2021/08/14 00:13:46;;;;;;;25.23;11.05;;;15.60;99.90;;;;;;5041035;28;20021;-57
2021/08/14 00:16:11;;;;;;;20.23;11.45;;;15.50;99.90;;;;;;5043521;28;20025;-58
2021/08/14 00:18:37;;;;;;;24.20;11.68;;;15.50;99.90;;;;;;5041042;28;20039;-57
2021/08/14 00:21:04;;;;;;;32.00;12.23;;;15.50;99.90;;;;;;5037521;28;20064;-56
2021/08/14 00:23:29;;;;;;;27.58;12.20;;;15.40;99.90;;;;;;5037378;28;20114;-58
2021/08/14 00:25:57;;;;;;;23.00;12.75;;;15.40;99.90;;;;;;5045126;28;20114;-55
2021/08/14 00:28:23;;;;;;;27.42;12.82;;;15.30;99.90;;;;;;5038870;28;20117;-53
2021/08/14 00:30:48;;;;;;;25.65;11.88;;;15.30;99.90;;;;;;5039258;28;20108;-58
2021/08/14 00:33:14;;;;;;;24.02;11.85;;;15.30;99.90;;;;;;5039608;28;20051;-58
2021/08/14 00:35:39;;;;;;;24.23;12.07;;;15.30;99.90;;;;;;5038945;28;20113;-56
2021/08/14 00:38:05;;;;;;;25.50;12.07;;;15.20;99.90;;;;;;5038788;28;20396;-57
2021/08/14 00:40:30;;;;;;;27.20;13.30;;;15.20;99.90;;;;;;5037778;28;20533;-58
2021/08/14 00:42:56;;;;;;;27.73;12.50;;;15.20;99.90;;;;;;5044661;28;20370;-58
2021/08/14 00:45:22;;;;;;;26.98;12.43;;;15.20;99.90;;;;;;5041673;28;20052;-60
2021/08/14 00:47:47;;;;;;;24.83;12.63;;;15.20;99.90;;;;;;5047538;28;20052;-57
2021/08/14 00:50:13;;;;;;;26.92;11.98;;;15.20;99.90;;;;;;5044314;28;20090;-57
2021/08/14 00:52:39;;;;;;;23.63;12.40;;;15.20;99.90;;;;;;5044380;28;20040;-55
2021/08/14 00:55:05;;;;;;;26.27;12.43;;;15.20;99.90;;;;;;5042207;28;20030;-60
2021/08/14 00:57:31;;;;;;;21.00;12.43;;;15.10;99.90;;;;;;5045375;28;20025;-58
2021/08/14 00:59:56;;;;;;;26.88;11.07;;;15.10;99.90;;;;;;5039796;28;20377;-56
2021/08/14 01:02:22;;;;;;;23.85;12.77;;;15.10;99.90;;;;;;5044248;28;20037;-54
2021/08/14 01:04:51;;;;;;;21.33;11.77;;;15.10;99.90;;;;;;5039530;28;20570;-54
2021/08/14 01:07:18;;;;;;;26.65;11.32;;;15.10;99.90;;;;;;5041240;28;20500;-56
2021/08/14 01:09:45;;;;;;;30.60;13.65;;;15.10;99.90;;;;;;5041186;28;20037;-59
2021/08/14 01:12:16;;;;;;;20.55;12.07;;;15.00;99.90;;;;;;5041049;28;20021;-54
2021/08/14 01:14:48;;;;;;;24.52;11.65;;;15.00;99.90;;;;;;5039776;28;20549;-58
2021/08/14 01:17:15;;;;;;;30.05;12.77;;;15.00;99.90;;;;;;5044433;28;20032;-57
2021/08/14 01:19:43;;;;;;;21.30;11.18;;;15.00;99.90;;;;;;5046785;28;20136;-58
2021/08/14 01:22:13;;;;;;;18.40;10.85;;;15.00;99.90;;;;;;5039480;28;20025;-56
2021/08/14 01:24:39;;;;;;;23.05;11.88;;;14.90;99.90;;;;;;5048297;28;20025;-55
2021/08/14 01:27:06;;;;;;;25.75;12.50;;;14.80;99.90;;;;;;5039966;28;20028;-57
2021/08/14 01:29:35;;;;;;;27.65;11.77;;;14.80;99.90;;;;;;5045678;28;20029;-54
2021/08/14 01:32:01;;;;;;;25.83;12.13;;;14.90;99.90;;;;;;5038266;28;20088;-55
2021/08/14 01:34:27;;;;;;;27.63;12.90;;;14.90;99.90;;;;;;5046550;28;20025;-57
2021/08/14 01:36:53;;;;;;;27.52;11.68;;;14.90;99.90;;;;;;5036776;28;20551;-56
2021/08/14 01:39:18;;;;;;;25.10;12.32;;;14.80;99.90;;;;;;5045027;28;20020;-58
2021/08/14 01:42:02;;;;;;;27.25;13.32;;;14.80;99.90;;;;;;5043169;28;20026;-57
2021/08/14 01:44:28;;;;;;;26.58;11.60;;;14.70;99.90;;;;;;5044317;28;20037;-56
2021/08/14 01:46:54;;;;;;;21.67;11.77;;;14.70;99.90;;;;;;5035822;28;20037;-55
2021/08/14 01:49:20;;;;;;;22.23;12.40;;;14.70;99.90;;;;;;5039416;28;20041;-56
2021/08/14 01:51:46;;;;;;;26.73;13.57;;;14.70;99.90;;;;;;5041723;28;20036;-55
2021/08/14 01:54:13;;;;;;;27.25;12.70;;;14.60;99.90;;;;;;5074018;22;20455;-60
2021/08/14 01:56:39;;;;;;;24.45;12.77;;;14.70;99.90;;;;;;5094636;28;20032;-58
2021/08/14 01:59:05;;;;;;;28.38;13.90;;;14.70;99.90;;;;;;5101702;28;20035;-58
2021/08/14 02:01:31;;;;;;;25.73;12.65;;;14.70;99.90;;;;;;5100032;28;20059;-60
2021/08/14 02:03:57;;;;;;;30.83;13.18;;;14.60;99.90;;;;;;5096667;28;20106;-60
2021/08/14 02:06:24;;;;;;;24.33;12.43;;;14.60;99.90;;;;;;5097460;28;20039;-60
2021/08/14 02:08:50;;;;;;;26.85;13.27;;;14.60;99.90;;;;;;5092738;28;20062;-60
2021/08/14 02:11:21;;;;;;;27.70;14.30;;;14.60;99.90;;;;;;5097761;28;20063;-58
2021/08/14 02:13:49;;;;;;;30.38;12.07;;;14.60;99.90;;;;;;5093660;28;20027;-60
2021/08/14 02:16:15;;;;;;;26.42;12.60;;;14.60;99.90;;;;;;5091759;28;20062;-60
2021/08/14 02:18:41;;;;;;;31.40;14.18;;;14.60;99.90;;;;;;5095340;28;20125;-58
2021/08/14 02:21:10;;;;;;;29.05;14.27;;;14.60;99.90;;;;;;5092742;28;20036;-60
2021/08/14 02:23:36;;;;;;;26.58;12.98;;;14.60;99.90;;;;;;5095812;28;20617;-60
2021/08/14 02:26:03;;;;;;;34.67;13.38;;;14.60;99.90;;;;;;5100000;28;20034;-60
2021/08/14 02:28:29;;;;;;;24.15;13.55;;;14.60;99.90;;;;;;5100281;28;20114;-60
2021/08/14 02:30:55;;;;;;;31.73;14.20;;;14.60;99.90;;;;;;5090194;28;21054;-61
2021/08/14 02:33:21;;;;;;;22.08;13.02;;;14.50;99.90;;;;;;5096840;28;20024;-61
2021/08/14 02:35:47;;;;;;;23.98;13.00;;;14.50;99.90;;;;;;5099412;28;20035;-60
2021/08/14 02:38:13;;;;;;;24.05;14.77;;;14.50;99.90;;;;;;5093615;28;20095;-61
2021/08/14 02:40:38;;;;;;;32.13;13.75;;;14.60;99.90;;;;;;5097806;28;20036;-61
2021/08/14 02:43:05;;;;;;;26.73;14.55;;;14.60;99.90;;;;;;5097255;28;20027;-60
2021/08/14 02:45:32;;;;;;;24.88;14.38;;;14.50;99.90;;;;;;5097837;28;20106;-61
2021/08/14 02:48:00;;;;;;;22.88;13.63;;;14.50;99.90;;;;;;5100634;28;20023;-61
2021/08/14 02:50:27;;;;;;;26.77;14.10;;;14.60;99.90;;;;;;5101266;28;20127;-60
2021/08/14 02:52:52;;;;;;;20.55;12.90;;;14.50;99.90;;;;;;5094856;28;20081;-60
2021/08/14 02:55:18;;;;;;;22.90;13.32;;;14.50;99.90;;;;;;5095729;28;20432;-60
2021/08/14 02:57:44;;;;;;;30.05;14.55;;;14.50;99.90;;;;;;5096847;28;20051;-59
2021/08/14 03:00:10;;;;;;;24.70;14.02;;;14.50;99.90;;;;;;5090849;28;20055;-61
2021/08/14 03:02:35;;;;;;;28.52;13.90;;;14.40;99.90;;;;;;5093738;28;20030;-60
2021/08/14 03:05:01;;;;;;;38.45;13.95;;;14.40;99.90;;;;;;5096324;28;20406;-61
2021/08/14 03:07:26;;;;;;;27.42;13.00;;;14.40;99.90;;;;;;5102686;28;20486;-60
2021/08/14 03:09:52;;;;;;;25.15;13.60;;;14.40;99.90;;;;;;5090161;28;20131;-60
2021/08/14 03:12:17;;;;;;;21.70;13.25;;;14.30;99.90;;;;;;5092794;28;20800;-60
2021/08/14 03:14:43;;;;;;;27.75;13.60;;;14.30;99.90;;;;;;5099289;28;20424;-59
2021/08/14 03:17:08;;;;;;;27.38;14.52;;;14.30;99.90;;;;;;5100992;28;20039;-60
2021/08/14 03:19:34;;;;;;;23.25;14.40;;;14.30;99.90;;;;;;5093305;28;20023;-60
2021/08/14 03:22:00;;;;;;;27.17;12.85;;;14.30;99.90;;;;;;5095045;28;20164;-60
2021/08/14 03:24:26;;;;;;;25.67;12.65;;;14.30;99.90;;;;;;5100178;28;20084;-59
2021/08/14 03:26:51;;;;;;;23.73;13.02;;;14.30;99.90;;;;;;5093615;28;20119;-57
2021/08/14 03:29:17;;;;;;;24.52;12.85;;;14.40;99.90;;;;;;5102301;28;20039;-60
2021/08/14 03:31:42;;;;;;;25.60;13.30;;;14.40;99.90;;;;;;5099584;28;20023;-60
2021/08/14 03:34:08;;;;;;;33.30;12.77;;;14.40;99.90;;;;;;5094499;28;20027;-61
2021/08/14 03:36:34;;;;;;;25.42;12.57;;;14.40;99.90;;;;;;5098472;28;20617;-59
2021/08/14 03:39:00;;;;;;;21.50;11.52;;;14.50;99.90;;;;;;5098383;28;20103;-59
2021/08/14 03:41:25;;;;;;;23.35;12.77;;;14.50;99.90;;;;;;5099610;28;20403;-59
2021/08/14 03:43:51;;;;;;;21.45;12.85;;;14.60;99.90;;;;;;5099444;28;20031;-58
2021/08/14 03:46:16;;;;;;;24.45;13.68;;;14.50;99.90;;;;;;5097713;28;20384;-58
2021/08/14 03:48:42;;;;;;;22.40;12.50;;;14.40;99.90;;;;;;5104174;28;20437;-59
2021/08/14 03:51:07;;;;;;;30.00;13.48;;;14.40;99.90;;;;;;5100015;28;20426;-60
2021/08/14 03:53:33;;;;;;;23.02;13.25;;;14.40;99.90;;;;;;5096398;28;20020;-60
2021/08/14 03:55:58;;;;;;;22.70;12.90;;;14.40;99.90;;;;;;5097447;28;20052;-60
2021/08/14 03:58:24;;;;;;;23.92;13.88;;;14.40;99.90;;;;;;5106537;28;20024;-59
2021/08/14 04:00:50;;;;;;;29.55;13.70;;;14.30;99.90;;;;;;5096005;28;20055;-59
2021/08/14 04:03:16;;;;;;;27.38;13.20;;;14.40;99.90;;;;;;5091933;28;20090;-60
2021/08/14 04:05:41;;;;;;;27.15;14.30;;;14.30;99.90;;;;;;5100455;28;20038;-60
2021/08/14 04:08:07;;;;;;;27.92;12.82;;;14.30;99.90;;;;;;5093505;28;20020;-60
2021/08/14 04:10:32;;;;;;;22.55;12.82;;;14.30;99.90;;;;;;5097286;28;20035;-59
2021/08/14 04:12:58;;;;;;;32.13;13.95;;;14.30;99.90;;;;;;5098666;28;20035;-61
2021/08/14 04:15:23;;;;;;;25.20;13.50;;;14.20;99.90;;;;;;5098566;28;20077;-60
2021/08/14 04:17:49;;;;;;;28.65;14.75;;;14.30;99.90;;;;;;5093902;28;20020;-58
2021/08/14 04:20:14;;;;;;;25.08;14.05;;;14.20;99.90;;;;;;5098674;28;20045;-61
2021/08/14 04:22:40;;;;;;;23.33;13.15;;;14.20;99.90;;;;;;5096317;28;20031;-59
2021/08/14 04:25:07;;;;;;;31.27;14.93;;;14.20;99.90;;;;;;5098652;28;21758;-60
2021/08/14 04:27:33;;;;;;;28.50;14.43;;;14.20;99.90;;;;;;5093571;28;20437;-61
2021/08/14 04:30:02;;;;;;;29.15;13.07;;;14.10;99.90;;;;;;5097240;28;20032;-61
2021/08/14 04:32:34;;;;;;;26.40;13.80;;;14.10;99.90;;;;;;5103273;28;20027;-61
2021/08/14 04:35:05;;;;;;;44.22;16.48;;;14.10;99.90;;;;;;5098514;28;20024;-60
2021/08/14 04:37:31;;;;;;;27.40;14.40;;;14.20;99.90;;;;;;5096348;28;20516;-61
2021/08/14 04:39:56;;;;;;;24.30;12.80;;;14.20;99.90;;;;;;5100598;28;20032;-60
2021/08/14 04:42:22;;;;;;;26.23;13.45;;;14.20;99.90;;;;;;5097326;28;20028;-57
2021/08/14 04:44:47;;;;;;;29.13;13.98;;;14.20;99.90;;;;;;5095951;28;20036;-60
2021/08/14 04:47:13;;;;;;;27.45;13.65;;;14.20;99.90;;;;;;5097853;28;20053;-59
2021/08/14 04:49:38;;;;;;;27.13;12.18;;;14.20;99.90;;;;;;5093682;28;20032;-60
2021/08/14 04:52:04;;;;;;;23.55;13.25;;;14.30;99.90;;;;;;5094641;28;20479;-61
2021/08/14 04:54:30;;;;;;;25.50;14.15;;;14.20;99.90;;;;;;5094809;28;20158;-61
2021/08/14 04:56:55;;;;;;;26.48;13.77;;;14.30;99.90;;;;;;5095596;28;20049;-60
2021/08/14 04:59:21;;;;;;;25.83;14.20;;;14.30;99.90;;;;;;5096902;28;20038;-61
2021/08/14 05:01:46;;;;;;;26.40;13.35;;;14.30;99.90;;;;;;5096118;28;20078;-60
2021/08/14 05:04:12;;;;;;;25.50;14.27;;;14.30;99.90;;;;;;5098602;28;20040;-61
2021/08/14 05:06:38;;;;;;;24.90;12.93;;;14.40;99.90;;;;;;5095252;28;20027;-60
2021/08/14 05:09:04;;;;;;;31.10;13.10;;;14.40;99.90;;;;;;5101433;28;20053;-60
2021/08/14 05:11:30;;;;;;;27.35;14.35;;;14.50;99.90;;;;;;5098607;28;20023;-61
2021/08/14 05:13:55;;;;;;;24.98;12.95;;;14.50;99.90;;;;;;5094783;28;20031;-60
2021/08/14 05:16:24;;;;;;;38.35;16.67;;;14.50;99.90;;;;;;5094607;28;20016;-60
2021/08/14 05:18:53;;;;;;;30.17;14.82;;;14.60;99.90;;;;;;5096677;28;20501;-59
2021/08/14 05:21:19;;;;;;;25.02;14.05;;;14.60;99.90;;;;;;5097053;28;20031;-61
2021/08/14 05:23:44;;;;;;;23.45;12.77;;;14.60;99.90;;;;;;5103414;28;20054;-59
2021/08/14 05:26:10;;;;;;;23.55;14.23;;;14.70;99.90;;;;;;5091230;28;20063;-60
2021/08/14 05:28:35;;;;;;;28.20;14.93;;;14.70;99.90;;;;;;5079619;28;20031;-59
2021/08/14 05:31:01;;;;;;;29.73;13.82;;;14.80;99.90;;;;;;5091412;28;20036;-61
2021/08/14 05:33:27;;;;;;;25.25;14.27;;;14.90;99.90;;;;;;5100869;28;20027;-59
2021/08/14 05:35:52;;;;;;;25.35;15.27;;;14.90;99.90;;;;;;5097724;28;20020;-59
2021/08/14 05:38:18;;;;;;;24.17;13.05;;;15.00;99.90;;;;;;5097690;28;20062;-59
2021/08/14 05:40:43;;;;;;;30.40;14.93;;;15.10;99.90;;;;;;5089033;28;20058;-59
2021/08/14 05:43:09;;;;;;;29.50;14.38;;;15.20;99.90;;;;;;5094165;28;20048;-59
2021/08/14 05:45:35;;;;;;;26.73;13.32;;;15.30;99.90;;;;;;5093312;28;20497;-61
2021/08/14 05:48:05;;;;;;;28.55;14.73;;;15.40;99.90;;;;;;5096379;28;20115;-59
2021/08/14 05:50:31;;;;;;;24.98;14.35;;;15.50;99.90;;;;;;5096499;28;20024;-59
2021/08/14 05:52:56;;;;;;;24.63;13.73;;;15.60;99.90;;;;;;5096043;28;20026;-58
2021/08/14 05:55:22;;;;;;;24.33;13.55;;;15.60;99.90;;;;;;5103318;28;20101;-58
2021/08/14 05:57:49;;;;;;;29.58;16.10;;;15.70;99.90;;;;;;5104331;28;20119;-59
2021/08/14 06:00:15;;;;;;;31.55;15.07;;;15.80;99.90;;;;;;5100201;28;20441;-59
2021/08/14 06:02:41;;;;;;;24.20;14.23;;;15.80;99.90;;;;;;5094795;28;20055;-57
2021/08/14 06:05:08;;;;;;;26.92;14.93;;;15.90;99.90;;;;;;5090897;28;20056;-61
2021/08/14 06:07:34;;;;;;;27.00;14.70;;;15.90;99.90;;;;;;5091901;28;20710;-60
2021/08/14 06:10:00;;;;;;;26.50;15.63;;;16.00;99.90;;;;;;5090541;28;20206;-59
2021/08/14 06:12:25;;;;;;;26.98;14.52;;;16.10;99.90;;;;;;5099542;28;20084;-60
2021/08/14 06:14:51;;;;;;;23.77;14.48;;;16.20;99.90;;;;;;5093127;28;20073;-60
2021/08/14 06:17:16;;;;;;;32.25;15.27;;;16.30;99.90;;;;;;5090949;28;20020;-60
2021/08/14 06:19:42;;;;;;;27.85;15.15;;;16.40;99.90;;;;;;5098463;28;20119;-58
2021/08/14 06:22:07;;;;;;;26.67;14.30;;;16.40;99.90;;;;;;5095394;28;20032;-58
2021/08/14 06:24:33;;;;;;;24.40;14.60;;;16.50;99.90;;;;;;5090668;28;20056;-59
2021/08/14 06:26:59;;;;;;;22.17;13.38;;;16.60;99.90;;;;;;5091798;28;20100;-60
2021/08/14 06:29:24;;;;;;;27.40;14.25;;;16.60;99.90;;;;;;5096949;28;20035;-58
2021/08/14 06:31:50;;;;;;;29.92;15.30;;;16.70;99.90;;;;;;5090379;28;20032;-60
2021/08/14 06:34:15;;;;;;;28.67;15.30;;;16.70;99.90;;;;;;5108129;28;20031;-61
2021/08/14 06:36:41;;;;;;;22.02;12.88;;;16.80;99.90;;;;;;5101344;28;20039;-59
2021/08/14 06:39:06;;;;;;;24.60;13.63;;;16.90;99.90;;;;;;5102430;28;20107;-60
2021/08/14 06:41:32;;;;;;;24.25;14.52;;;17.00;99.90;;;;;;5096906;28;20028;-61
2021/08/14 06:43:57;;;;;;;26.15;13.00;;;17.10;99.90;;;;;;5093779;28;20055;-60
2021/08/14 06:46:23;;;;;;;24.77;13.63;;;17.10;99.90;;;;;;5104903;28;20521;-60
2021/08/14 06:48:49;;;;;;;23.17;11.68;;;17.20;99.90;;;;;;5090122;28;20506;-60
2021/08/14 06:51:14;;;;;;;23.58;13.02;;;17.20;99.90;;;;;;5092540;28;20035;-60
2021/08/14 06:53:41;;;;;;;25.75;12.23;;;17.30;99.90;;;;;;5090198;28;20028;-61
2021/08/14 06:56:06;;;;;;;26.58;10.90;;;17.30;99.90;;;;;;5093482;28;20047;-59
2021/08/14 06:58:32;;;;;;;34.33;12.23;;;17.40;99.90;;;;;;5089454;28;20422;-60
2021/08/14 07:00:57;;;;;;;22.30;10.38;;;17.40;99.90;;;;;;5090540;28;20097;-60
2021/08/14 07:03:23;;;;;;;32.20;9.65;;;17.60;99.90;;;;;;5090593;28;20028;-60
2021/08/14 07:05:48;;;;;;;20.80;8.48;;;17.70;99.90;;;;;;5090282;28;20042;-60
2021/08/14 07:08:14;;;;;;;18.40;7.47;;;17.90;99.90;;;;;;5089487;28;20034;-61
2021/08/14 07:10:39;;;;;;;24.17;7.30;;;17.90;99.90;;;;;;5091248;28;20127;-61
2021/08/14 07:13:05;;;;;;;23.27;8.60;;;18.10;99.90;;;;;;5092127;28;20103;-61
2021/08/14 07:15:31;;;;;;;22.83;8.02;;;18.10;99.90;;;;;;5089711;28;20031;-60
2021/08/14 07:17:57;;;;;;;18.45;7.55;;;18.20;99.90;;;;;;5097993;28;20026;-60
2021/08/14 07:20:22;;;;;;;19.20;7.35;;;18.30;99.90;;;;;;5095805;28;20036;-60
2021/08/14 07:22:48;;;;;;;25.02;7.53;;;18.30;99.90;;;;;;5097282;28;20038;-61
2021/08/14 07:25:13;;;;;;;27.05;6.90;;;18.30;99.90;;;;;;5100110;28;20106;-62
2021/08/14 07:27:39;;;;;;;18.25;7.13;;;18.40;99.90;;;;;;5095248;28;20446;-60
2021/08/14 07:30:06;;;;;;;21.80;8.05;;;18.40;99.90;;;;;;5091615;28;20028;-59
2021/08/14 07:32:31;;;;;;;24.50;7.82;;;18.50;99.90;;;;;;5089299;28;20545;-60
2021/08/14 07:34:57;;;;;;;18.25;7.28;;;18.50;99.90;;;;;;5093011;28;20048;-60
2021/08/14 07:37:22;;;;;;;24.95;7.30;;;18.60;99.90;;;;;;5093450;28;20446;-59
2021/08/14 07:39:48;;;;;;;17.55;6.55;;;18.60;99.90;;;;;;5088917;28;20107;-60
2021/08/14 07:42:14;;;;;;;24.52;8.07;;;18.70;99.90;;;;;;5089798;28;20422;-61
2021/08/14 07:44:39;;;;;;;18.98;7.13;;;18.70;99.90;;;;;;5086713;28;20040;-60
2021/08/14 07:47:05;;;;;;;24.35;7.43;;;18.90;99.90;;;;;;5089983;28;20028;-60
2021/08/14 07:49:31;;;;;;;21.88;7.32;;;18.90;99.90;;;;;;5092953;28;20111;-61
2021/08/14 07:51:57;;;;;;;21.80;6.78;;;18.90;99.90;;;;;;5086269;28;20462;-60
2021/08/14 07:54:22;;;;;;;17.15;6.93;;;19.00;99.90;;;;;;5091594;28;20027;-60
2021/08/14 07:56:48;;;;;;;27.40;7.57;;;19.10;99.90;;;;;;5094609;28;20036;-60
2021/08/14 07:59:13;;;;;;;21.20;6.03;;;19.10;99.90;;;;;;5086700;28;20036;-59
2021/08/14 08:01:39;;;;;;;18.38;6.50;;;19.20;99.90;;;;;;5094911;28;20089;-61
2021/08/14 08:04:04;;;;;;;21.20;6.68;;;19.30;99.90;;;;;;5085893;28;20057;-60
2021/08/14 08:06:30;;;;;;;14.27;4.93;;;19.20;99.90;;;;;;5090974;28;20028;-60
2021/08/14 08:08:56;;;;;;;12.50;5.22;;;19.30;99.90;;;;;;5093106;28;20065;-61
2021/08/14 08:11:21;;;;;;;18.77;5.32;;;19.40;99.90;;;;;;5086180;28;20036;-61
2021/08/14 08:13:47;;;;;;;18.27;6.00;;;19.50;99.90;;;;;;5086079;28;20111;-61
2021/08/14 08:16:12;;;;;;;18.27;5.30;;;19.60;99.90;;;;;;5091897;28;20065;-60
2021/08/14 08:18:38;;;;;;;21.77;6.30;;;19.70;99.90;;;;;;5101419;28;20032;-61
2021/08/14 08:21:04;;;;;;;25.02;7.13;;;19.80;99.90;;;;;;5091360;28;20035;-59
2021/08/14 08:23:30;;;;;;;20.67;6.05;;;19.80;99.90;;;;;;5096539;28;20529;-60
2021/08/14 08:25:55;;;;;;;21.10;5.57;;;19.90;99.90;;;;;;5089397;28;20024;-60
2021/08/14 08:28:22;;;;;;;19.17;6.07;;;20.00;99.90;;;;;;5104636;28;20379;-59
2021/08/14 08:30:49;;;;;;;16.77;5.57;;;20.10;99.90;;;;;;5093008;28;20039;-59
2021/08/14 08:33:14;;;;;;;19.02;5.82;;;20.10;99.90;;;;;;5089514;28;20028;-60
2021/08/14 08:35:40;;;;;;;22.73;5.30;;;20.10;99.90;;;;;;5093125;28;20493;-60
2021/08/14 08:38:06;;;;;;;18.70;5.22;;;20.10;99.90;;;;;;5089913;28;20036;-59
2021/08/14 08:40:38;;;;;;;16.30;5.78;;;20.20;99.90;;;;;;5089006;28;20558;-58
2021/08/14 08:43:04;;;;;;;19.45;5.85;;;20.30;99.90;;;;;;5088386;28;20114;-60
2021/08/14 08:45:31;;;;;;;16.17;4.68;;;20.30;99.90;;;;;;5089497;28;20040;-60
2021/08/14 08:47:57;;;;;;;11.45;4.20;;;20.50;99.90;;;;;;5089503;28;20020;-59
2021/08/14 08:50:28;;;;;;;17.48;5.20;;;20.50;99.90;;;;;;5094035;28;20020;-60
2021/08/14 08:52:53;;;;;;;19.45;4.13;;;20.60;99.90;;;;;;5089228;28;20152;-59
2021/08/14 08:55:21;;;;;;;11.50;4.03;;;20.70;99.90;;;;;;5089510;28;20499;-58
2021/08/14 08:57:47;;;;;;;14.10;4.40;;;20.80;99.90;;;;;;5094415;28;20028;-59
2021/08/14 09:00:16;;;;;;;16.95;4.50;;;20.90;99.90;;;;;;5100140;28;20110;-59
2021/08/14 09:02:46;;;;;;;13.73;4.15;;;21.00;99.90;;;;;;5087259;28;20118;-59
2021/08/14 09:05:13;;;;;;;13.60;4.28;;;21.10;99.90;;;;;;5091196;28;20028;-58
2021/08/14 09:07:40;;;;;;;13.73;4.15;;;21.20;99.90;;;;;;5090025;28;20060;-58
2021/08/14 09:10:09;;;;;;;15.73;4.20;;;21.30;99.90;;;;;;5094912;28;20043;-57
2021/08/14 09:12:38;;;;;;;10.68;3.40;;;21.40;99.90;;;;;;5092484;28;20023;-60
2021/08/14 09:15:05;;;;;;;14.60;4.68;;;21.40;99.90;;;;;;5094223;28;20096;-58
2021/08/14 09:17:32;;;;;;;19.73;5.00;;;21.50;99.90;;;;;;5093598;28;20173;-58
2021/08/14 09:20:06;;;;;;;14.73;4.30;;;21.60;99.90;;;;;;5099263;28;20438;-60
2021/08/14 09:22:32;;;;;;;10.38;4.03;;;21.70;99.90;;;;;;5108643;28;20490;-58
2021/08/14 09:25:19;;;;;;;12.75;4.38;;;21.70;99.90;;;;;;5091551;28;20038;-56
2021/08/14 09:27:57;;;;;;;15.07;3.78;;;21.90;99.90;;;;;;5089408;28;20040;-59
2021/08/14 09:30:51;;;;;;;15.27;4.45;;;21.90;99.90;;;;;;5099262;28;20040;-58
2021/08/14 09:33:32;;;;;;;13.00;3.88;;;22.10;99.90;;;;;;5097426;28;20459;-58
2021/08/14 09:36:02;;;;;;;26.83;5.13;;;22.30;99.90;;;;;;5087782;28;20389;-59
2021/08/14 09:39:00;;;;;;;14.70;3.50;;;22.30;99.90;;;;;;5100696;28;20762;-60
2021/08/14 09:41:25;;;;;;;14.40;4.25;;;22.40;99.90;;;;;;5034652;28;20040;-58
2021/08/14 09:43:52;;;;;;;15.57;3.85;;;22.50;99.90;;;;;;5099502;28;20034;-59
2021/08/14 09:46:18;;;;;;;14.57;4.35;;;22.50;99.90;;;;;;5070779;28;20028;-59
2021/08/14 09:48:54;;;;;;;14.18;4.28;;;22.70;99.90;;;;;;5090446;28;20031;-59
2021/08/14 09:51:31;;;;;;;13.30;4.47;;;22.90;99.90;;;;;;5088570;28;20035;-59
2021/08/14 09:54:01;;;;;;;14.05;4.80;;;22.90;99.90;;;;;;5092270;28;20024;-59
2021/08/14 09:56:27;;;;;;;12.90;4.43;;;23.00;99.90;;;;;;5094217;28;20024;-59
2021/08/14 09:58:53;;;;;;;10.95;4.13;;;23.20;99.90;;;;;;5087078;28;20028;-59
2021/08/14 10:01:20;;;;;;;12.95;3.80;;;23.20;99.90;;;;;;5085552;28;20035;-60
2021/08/14 10:03:46;;;;;;;12.68;4.25;;;23.00;99.90;;;;;;5090082;28;20375;-58
2021/08/14 10:06:13;;;;;;;11.90;3.67;;;23.20;99.90;;;;;;5088028;28;20451;-59
2021/08/14 10:08:40;;;;;;;14.93;4.50;;;23.30;99.90;;;;;;5088023;28;20106;-55
2021/08/14 10:11:09;;;;;;;11.65;3.80;;;23.30;99.90;;;;;;5093298;28;20057;-59
2021/08/14 10:13:38;;;;;;;16.65;4.10;;;23.40;99.90;;;;;;5093197;28;20024;-59
2021/08/14 10:16:04;;;;;;;13.13;3.83;;;23.70;99.90;;;;;;5102121;28;20115;-59
2021/08/14 10:18:29;;;;;;;16.75;4.88;;;23.60;99.90;;;;;;5094136;28;20115;-57
2021/08/14 10:20:55;;;;;;;12.18;3.85;;;23.70;99.90;;;;;;5109522;22;20053;-59
2021/08/14 10:23:23;;;;;;;18.05;4.22;;;24.00;99.90;;;;;;5090646;28;20028;-63
2021/08/14 10:26:02;;;;;;;11.10;4.00;;;24.20;99.90;;;;;;5091072;28;20504;-61
2021/08/14 10:28:51;;;;;;;15.52;4.28;;;24.20;99.90;;;;;;5094236;28;20028;-62
2021/08/14 10:31:29;;;;;;;16.35;4.88;;;24.40;99.90;;;;;;5089876;28;20292;-64
2021/08/14 10:33:55;;;;;;;12.63;4.32;;;24.70;99.90;;;;;;5090586;28;20356;-63
2021/08/14 10:36:21;;;;;;;10.38;4.03;;;25.00;99.90;;;;;;5090440;28;20024;-64
2021/08/14 10:38:50;;;;;;;17.05;4.85;;;25.40;99.90;;;;;;5104696;28;20031;-63
2021/08/14 10:41:16;;;;;;;12.27;4.95;;;25.50;99.90;;;;;;5096916;28;20035;-63
2021/08/14 10:43:54;;;;;;;16.50;5.10;;;25.50;99.90;;;;;;5091914;28;20026;-61
2021/08/14 10:46:37;;;;;;;13.07;4.00;;;25.80;99.90;;;;;;5088331;28;20020;-60
2021/08/14 10:49:08;;;;;;;18.58;5.05;;;26.00;99.90;;;;;;5090270;28;20077;-61
2021/08/14 10:51:52;;;;;;;12.13;4.15;;;25.60;99.90;;;;;;5091798;28;20036;-62
2021/08/14 10:54:30;;;;;;;18.83;4.63;;;25.60;99.90;;;;;;5090411;28;20057;-61
2021/08/14 10:56:56;;;;;;;13.68;4.35;;;25.90;99.90;;;;;;5093953;28;20034;-60
2021/08/14 10:59:40;;;;;;;15.13;4.68;;;25.80;99.90;;;;;;5096429;28;20459;-60
2021/08/14 11:02:08;;;;;;;14.57;4.47;;;25.50;99.90;;;;;;5086798;28;20032;-62
2021/08/14 11:04:42;;;;;;;18.92;4.30;;;25.20;99.90;;;;;;5086431;28;20039;-62
2021/08/14 11:07:20;;;;;;;12.30;3.95;;;25.30;99.90;;;;;;5091795;28;20125;-61
2021/08/14 11:09:47;;;;;;;15.23;4.70;;;25.10;99.90;;;;;;5087069;28;20050;-61
2021/08/14 11:12:30;;;;;;;15.45;4.72;;;25.00;99.90;;;;;;5096656;28;20050;-63
2021/08/14 11:15:18;;;;;;;17.33;5.20;;;24.90;99.90;;;;;;5094115;28;20118;-62
2021/08/14 11:17:45;;;;;;;16.98;5.03;;;24.80;99.90;;;;;;5095800;28;20390;-62
2021/08/14 11:20:20;;;;;;;19.63;4.95;;;24.70;99.90;;;;;;5096237;28;20572;-62
2021/08/14 11:22:47;;;;;;;12.70;4.57;;;25.10;99.90;;;;;;5101831;28;20032;-59
2021/08/14 11:25:39;;;;;;;13.23;5.13;;;25.60;99.90;;;;;;5087017;28;20039;-60
2021/08/14 11:28:12;;;;;;;13.52;5.03;;;25.60;99.90;;;;;;5093528;28;20035;-62
2021/08/14 11:30:44;;;;;;;13.93;4.57;;;25.70;99.90;;;;;;5100748;28;20523;-60
2021/08/14 11:33:11;;;;;;;16.50;4.70;;;25.90;99.90;;;;;;5087102;28;20770;-61
2021/08/14 11:35:38;;;;;;;20.67;4.75;;;25.80;99.90;;;;;;5088973;28;20028;-59
2021/08/14 11:38:09;;;;;;;14.27;5.65;;;25.60;99.90;;;;;;5100670;28;20031;-61
2021/08/14 11:40:37;;;;;;;17.60;4.63;;;25.60;99.90;;;;;;5090168;28;20035;-62
2021/08/14 11:43:08;;;;;;;13.40;5.15;;;25.70;99.90;;;;;;5094517;28;20173;-60
2021/08/14 11:45:36;;;;;;;12.52;5.03;;;26.10;99.90;;;;;;5089630;28;20016;-60
2021/08/14 11:48:04;;;;;;;17.73;4.93;;;26.30;99.90;;;;;;5088769;28;20023;-59
2021/08/14 11:50:41;;;;;;;14.30;4.65;;;26.50;99.90;;;;;;5087201;28;20030;-59
2021/08/14 11:53:10;;;;;;;19.55;4.38;;;26.50;99.90;;;;;;5091494;28;20372;-63
2021/08/14 11:55:36;;;;;;;15.57;4.15;;;26.80;99.90;;;;;;5094100;28;20118;-63
2021/08/14 11:58:02;;;;;;;10.70;4.55;;;27.10;99.90;;;;;;5093306;28;20150;-59
2021/08/14 12:00:29;;;;;;;12.93;4.50;;;27.10;99.90;;;;;;5093954;28;20036;-62
2021/08/14 12:03:07;;;;;;;15.55;4.50;;;27.10;99.90;;;;;;5092825;28;20055;-62
2021/08/14 12:05:38;;;;;;;12.43;4.53;;;27.30;99.90;;;;;;5085201;28;20844;-59
2021/08/14 12:08:05;;;;;;;15.38;5.13;;;27.20;99.30;;;;;;5101180;28;20020;-62
2021/08/14 12:10:31;;;;;;;11.43;4.80;;;27.00;99.20;;;;;;5108642;28;20031;-61
2021/08/14 12:12:57;;;;;;;11.65;4.32;;;27.20;99.90;;;;;;5098060;28;20030;-62
2021/08/14 12:15:41;;;;;;;13.48;5.28;;;27.60;99.90;;;;;;5112205;28;20064;-60
2021/08/14 12:18:08;;;;;;;10.93;4.53;;;27.50;99.20;;;;;;5113396;28;20024;-63
2021/08/14 12:20:37;;;;;;;11.57;3.80;;;27.90;98.40;;;;;;5112947;28;20100;-58
2021/08/14 12:23:20;;;;;;;22.58;4.18;;;28.20;97.00;;;;;;5113286;28;20047;-62
2021/08/14 12:25:55;;;;;;;11.55;4.38;;;28.20;95.70;;;;;;5112668;28;20069;-60
2021/08/14 12:28:38;;;;;;;10.48;3.85;;;27.90;94.60;;;;;;5107223;28;20405;-62
2021/08/14 12:31:18;;;;;;;12.40;4.28;;;27.60;95.80;;;;;;5099317;28;20044;-62
2021/08/14 12:33:52;;;;;;;12.52;3.97;;;27.60;96.90;;;;;;5093542;28;20395;-63